Time;durP1;ratioP1;P1;durP2;ratioP2;P2;SDS_P1;SDS_P2;PMS_P1;PMS_P2;Temp;Humidity;BMP_temperature;BMP_pressure;BME280_temperature;BME280_humidity;BME280_pressure;Samples;Min_cycle;Max_cycle;Signal;HPM_P1;HPM_P2
2023/09/11 00:00:23;;;;;;;10.90;9.90;;;23.90;38.20;;;;;;10403548;28;20232;-73
2023/09/11 00:05:28;;;;;;;11.80;10.97;;;23.80;38.30;;;;;;10407720;28;20221;-74
2023/09/11 00:10:32;;;;;;;10.70;9.87;;;23.80;38.90;;;;;;10410239;28;20241;-73
2023/09/11 00:15:35;;;;;;;12.20;11.20;;;23.80;38.40;;;;;;10423740;28;20264;-73
2023/09/11 00:20:40;;;;;;;11.20;10.30;;;23.80;38.40;;;;;;10402028;28;20229;-73
2023/09/11 00:25:43;;;;;;;12.33;11.33;;;23.80;38.70;;;;;;10399874;28;20232;-74
2023/09/11 00:30:46;;;;;;;11.20;10.40;;;23.80;38.40;;;;;;10408237;28;20332;-72
2023/09/11 00:35:51;;;;;;;11.17;10.33;;;23.80;38.40;;;;;;10410585;28;20257;-74
2023/09/11 00:40:54;;;;;;;12.07;11.07;;;23.70;38.60;;;;;;10403724;28;20230;-73
2023/09/11 00:45:58;;;;;;;11.47;10.47;;;23.70;38.40;;;;;;10402311;28;20222;-73
2023/09/11 00:51:04;;;;;;;11.43;10.53;;;23.70;38.50;;;;;;10406817;28;20228;-73
2023/09/11 00:56:07;;;;;;;10.90;10.10;;;23.60;38.70;;;;;;10407990;28;20230;-73
2023/09/11 01:01:11;;;;;;;11.57;10.60;;;23.60;38.40;;;;;;10402502;28;20622;-73
2023/09/11 01:06:16;;;;;;;9.73;9.03;;;23.50;38.30;;;;;;10404819;28;20232;-73
2023/09/11 01:11:20;;;;;;;10.83;9.93;;;23.50;38.50;;;;;;10409895;28;20236;-74
2023/09/11 01:16:41;;;;;;;12.63;11.53;;;23.50;38.40;;;;;;10414261;28;20236;-74
2023/09/11 01:22:11;;;;;;;10.93;10.03;;;23.40;38.80;;;;;;10412203;28;20974;-73
2023/09/11 01:27:42;;;;;;;12.17;11.13;;;23.30;38.60;;;;;;10416862;28;20251;-73
2023/09/11 01:32:48;;;;;;;11.40;10.40;;;23.20;38.90;;;;;;10390147;28;20714;-74
2023/09/11 01:37:51;;;;;;;11.10;10.00;;;23.10;38.90;;;;;;10403373;28;20696;-74
2023/09/11 01:42:57;;;;;;;10.90;10.00;;;23.10;38.40;;;;;;10404270;28;20233;-73
2023/09/11 01:48:03;;;;;;;9.80;9.00;;;23.10;38.70;;;;;;10397361;28;20221;-76
2023/09/11 01:53:07;;;;;;;11.10;10.03;;;23.00;38.70;;;;;;10406539;28;20233;-73
2023/09/11 01:58:11;;;;;;;9.93;9.10;;;23.00;38.60;;;;;;10404937;28;21033;-73
2023/09/11 02:03:16;;;;;;;10.33;9.33;;;22.90;38.60;;;;;;10396393;28;20312;-73
2023/09/11 02:08:19;;;;;;;12.07;10.87;;;22.90;38.90;;;;;;10417750;28;20298;-73
2023/09/11 02:13:23;;;;;;;11.27;10.17;;;22.80;38.60;;;;;;10407361;28;20770;-73
2023/09/11 02:18:27;;;;;;;11.50;9.77;;;22.80;38.90;;;;;;10408514;28;20223;-74
2023/09/11 02:23:30;;;;;;;11.70;10.70;;;22.80;39.00;;;;;;10405837;28;20236;-74
2023/09/11 02:28:34;;;;;;;11.53;10.57;;;22.70;38.90;;;;;;10399383;28;20304;-73
2023/09/11 02:33:38;;;;;;;11.83;10.83;;;22.70;38.90;;;;;;10405536;28;20225;-73
2023/09/11 02:38:42;;;;;;;12.57;11.57;;;22.60;38.80;;;;;;10410232;28;20694;-74
2023/09/11 02:43:45;;;;;;;11.97;10.87;;;22.60;38.80;;;;;;10400926;28;20300;-73
2023/09/11 02:48:50;;;;;;;12.63;11.43;;;22.50;38.70;;;;;;10398871;28;20239;-73
2023/09/11 02:53:53;;;;;;;12.10;11.10;;;22.40;38.60;;;;;;10402839;28;20229;-74
2023/09/11 02:58:57;;;;;;;10.60;9.80;;;22.30;38.50;;;;;;10402601;28;20225;-72
2023/09/11 03:04:02;;;;;;;11.30;10.40;;;22.30;38.50;;;;;;10400558;28;20263;-73
2023/09/11 03:09:05;;;;;;;9.27;8.57;;;22.20;38.50;;;;;;10403592;28;20917;-73
2023/09/11 03:14:11;;;;;;;10.30;9.50;;;22.20;38.40;;;;;;10401208;28;20648;-73
2023/09/11 03:19:16;;;;;;;8.47;7.87;;;22.10;38.40;;;;;;10402583;28;20253;-73
2023/09/11 03:24:19;;;;;;;10.07;9.27;;;22.10;38.40;;;;;;10395666;28;20236;-74
2023/09/11 03:29:22;;;;;;;10.60;9.70;;;22.00;38.30;;;;;;10398389;28;20247;-73
2023/09/11 03:34:27;;;;;;;9.47;8.80;;;21.90;38.60;;;;;;10402257;28;20231;-73
2023/09/11 03:39:30;;;;;;;9.40;8.70;;;21.90;38.90;;;;;;10398576;28;20225;-73
2023/09/11 03:44:33;;;;;;;10.67;9.77;;;21.80;38.60;;;;;;10405611;28;20757;-73
2023/09/11 03:49:38;;;;;;;10.07;9.27;;;21.80;38.70;;;;;;10395150;28;20234;-73
2023/09/11 03:54:41;;;;;;;11.00;9.97;;;21.80;39.00;;;;;;10405515;28;20893;-73
2023/09/11 03:59:45;;;;;;;10.47;9.60;;;21.70;38.80;;;;;;10401988;28;20253;-73
2023/09/11 04:04:49;;;;;;;9.63;8.90;;;21.60;38.90;;;;;;10407906;28;20229;-75
2023/09/11 04:09:52;;;;;;;9.97;9.17;;;21.60;39.10;;;;;;10399114;28;20746;-74
2023/09/11 04:14:55;;;;;;;11.53;9.70;;;21.60;38.90;;;;;;10412756;28;20237;-73
2023/09/11 04:20:00;;;;;;;10.43;9.53;;;21.60;38.90;;;;;;10397036;28;20635;-73
2023/09/11 04:25:04;;;;;;;10.70;9.90;;;21.60;39.10;;;;;;10402186;28;20332;-74
2023/09/11 04:30:08;;;;;;;11.03;10.20;;;21.50;38.70;;;;;;10407112;28;20337;-73
2023/09/11 04:35:13;;;;;;;8.80;8.10;;;21.40;38.80;;;;;;10407443;28;20225;-73
2023/09/11 04:40:16;;;;;;;8.70;8.00;;;21.30;39.10;;;;;;10409937;28;20233;-73
2023/09/11 04:45:19;;;;;;;8.60;7.90;;;21.20;39.00;;;;;;10409439;28;20757;-73
2023/09/11 04:50:24;;;;;;;8.67;7.97;;;21.10;39.10;;;;;;10410630;28;20290;-73
2023/09/11 04:55:27;;;;;;;9.07;8.37;;;21.00;39.40;;;;;;10403724;28;20625;-73
2023/09/11 05:00:31;;;;;;;9.17;8.47;;;21.00;39.40;;;;;;10408563;28;20232;-74
2023/09/11 05:05:40;;;;;;;10.07;9.13;;;20.90;39.50;;;;;;10407768;28;20235;-73
2023/09/11 05:10:44;;;;;;;9.53;8.63;;;20.90;39.80;;;;;;10402773;28;20233;-73
2023/09/11 05:15:48;;;;;;;9.50;8.70;;;20.80;39.50;;;;;;10406225;28;20229;-73
2023/09/11 05:20:52;;;;;;;8.60;7.90;;;20.80;39.70;;;;;;10406212;28;20238;-74
2023/09/11 05:25:56;;;;;;;9.00;8.07;;;20.80;40.10;;;;;;10412491;28;20237;-73
2023/09/11 05:30:59;;;;;;;9.07;8.23;;;20.70;40.00;;;;;;10408606;28;20229;-75
2023/09/11 05:36:05;;;;;;;9.90;8.80;;;20.70;40.20;;;;;;10410079;28;20724;-74
2023/09/11 05:41:08;;;;;;;9.67;8.93;;;20.60;40.70;;;;;;10398827;28;20597;-74
2023/09/11 05:46:11;;;;;;;10.63;9.73;;;20.70;40.60;;;;;;10402625;28;20305;-74
2023/09/11 05:51:16;;;;;;;9.90;9.17;;;20.60;40.80;;;;;;10407002;28;20377;-75
2023/09/11 05:56:19;;;;;;;11.37;10.47;;;20.70;41.40;;;;;;10415484;28;21472;-74
2023/09/11 06:01:23;;;;;;;12.60;11.30;;;20.70;41.50;;;;;;10412244;28;20323;-75
2023/09/11 06:06:28;;;;;;;11.73;10.63;;;20.70;41.50;;;;;;10407010;28;20221;-74
2023/09/11 06:11:31;;;;;;;11.90;11.00;;;20.70;42.10;;;;;;10406627;28;20239;-76
2023/09/11 06:16:34;;;;;;;11.60;10.60;;;20.70;42.00;;;;;;10408338;28;20567;-75
2023/09/11 06:21:39;;;;;;;12.20;11.20;;;20.70;42.20;;;;;;10404460;28;20320;-75
2023/09/11 06:26:43;;;;;;;12.13;11.13;;;20.70;43.30;;;;;;10400736;28;20996;-75
2023/09/11 06:31:46;;;;;;;11.27;10.43;;;20.70;42.80;;;;;;10402164;28;20635;-75
2023/09/11 06:36:52;;;;;;;13.53;12.30;;;20.80;43.00;;;;;;10407663;28;20221;-74
2023/09/11 06:41:55;;;;;;;13.70;12.60;;;20.80;43.90;;;;;;10403995;28;20734;-74
2023/09/11 06:46:59;;;;;;;15.50;13.87;;;20.90;43.60;;;;;;10411091;28;20232;-74
2023/09/11 06:52:04;;;;;;;14.47;13.37;;;21.00;44.00;;;;;;10401951;28;20689;-74
2023/09/11 06:57:07;;;;;;;14.10;12.90;;;21.20;44.80;;;;;;10400336;28;20782;-73
2023/09/11 07:02:10;;;;;;;15.00;13.80;;;21.30;44.50;;;;;;10402563;28;20225;-74
2023/09/11 07:07:15;;;;;;;15.23;14.03;;;21.40;44.50;;;;;;10408087;28;20225;-75
2023/09/11 07:12:21;;;;;;;15.47;14.07;;;21.60;45.50;;;;;;10401688;28;21060;-74
2023/09/11 07:17:25;;;;;;;15.83;14.43;;;21.70;46.20;;;;;;10400770;28;20856;-74
2023/09/11 07:22:30;;;;;;;16.20;14.80;;;21.90;45.50;;;;;;10398848;28;21130;-76
2023/09/11 07:27:34;;;;;;;16.17;14.93;;;22.10;46.30;;;;;;10409386;28;20619;-74
2023/09/11 07:32:37;;;;;;;16.27;14.70;;;22.30;46.00;;;;;;10400505;28;20650;-74
2023/09/11 07:37:42;;;;;;;15.63;14.33;;;22.50;46.20;;;;;;10416207;28;20471;-74
2023/09/11 07:42:45;;;;;;;14.40;13.20;;;22.80;46.90;;;;;;10404535;28;20267;-74
2023/09/11 07:47:48;;;;;;;17.30;15.80;;;23.10;46.10;;;;;;10398364;28;20229;-74
2023/09/11 07:52:53;;;;;;;15.73;14.50;;;23.30;46.30;;;;;;10394786;28;20225;-75
2023/09/11 07:57:56;;;;;;;16.03;14.73;;;23.60;47.30;;;;;;10395595;28;20217;-75
2023/09/11 08:02:59;;;;;;;15.63;14.23;;;23.90;46.00;;;;;;10405890;28;20308;-74
2023/09/11 08:08:05;;;;;;;14.60;13.30;;;24.30;45.90;;;;;;10412595;28;20304;-74
2023/09/11 08:13:08;;;;;;;14.20;13.10;;;24.60;46.10;;;;;;10405540;28;20810;-74
2023/09/11 08:18:11;;;;;;;14.47;13.37;;;24.80;45.50;;;;;;10409228;28;20233;-73
2023/09/11 08:23:16;;;;;;;14.10;12.90;;;25.10;45.50;;;;;;10411912;28;20233;-74
2023/09/11 08:28:19;;;;;;;13.60;12.43;;;25.40;45.40;;;;;;10410316;28;20237;-74
2023/09/11 08:33:24;;;;;;;13.27;12.27;;;25.70;44.90;;;;;;10403891;28;20235;-73
2023/09/11 08:38:35;;;;;;;12.93;11.93;;;26.00;44.80;;;;;;10420884;28;20237;-73
2023/09/11 08:43:39;;;;;;;13.00;12.00;;;26.20;44.50;;;;;;10404639;28;20233;-74
2023/09/11 08:48:44;;;;;;;13.03;12.10;;;26.50;44.00;;;;;;10414256;28;20252;-73
2023/09/11 08:53:52;;;;;;;12.43;11.50;;;26.80;43.70;;;;;;10405591;28;20308;-74
2023/09/11 08:58:58;;;;;;;11.87;10.87;;;27.10;43.90;;;;;;10409465;28;20309;-75
2023/09/11 09:04:02;;;;;;;12.00;11.00;;;27.40;43.10;;;;;;10406802;28;20235;-75
2023/09/11 09:09:07;;;;;;;12.17;11.03;;;27.70;42.70;;;;;;10407293;28;20284;-75
2023/09/11 09:14:11;;;;;;;11.50;10.60;;;28.00;41.70;;;;;;10409876;28;20883;-74
2023/09/11 09:19:15;;;;;;;11.00;10.20;;;28.20;41.60;;;;;;10407803;28;20607;-75
2023/09/11 09:24:20;;;;;;;11.10;10.10;;;28.50;41.20;;;;;;10412530;28;20647;-75
2023/09/11 09:29:24;;;;;;;10.33;9.53;;;28.70;40.90;;;;;;10407704;28;20229;-74
2023/09/11 09:34:27;;;;;;;10.80;10.00;;;28.90;40.30;;;;;;10414192;28;20225;-75
2023/09/11 09:39:33;;;;;;;9.80;9.10;;;29.20;40.00;;;;;;10404921;28;20233;-75
2023/09/11 09:44:38;;;;;;;9.07;8.47;;;29.40;38.40;;;;;;10406013;28;20275;-74
2023/09/11 09:49:47;;;;;;;9.13;8.53;;;29.60;37.70;;;;;;10413192;28;20232;-75
2023/09/11 09:54:54;;;;;;;9.67;8.87;;;29.80;36.80;;;;;;10403477;28;20252;-75
2023/09/11 09:59:59;;;;;;;9.07;8.30;;;29.90;35.50;;;;;;10405766;28;20229;-76
2023/09/11 10:05:04;;;;;;;8.90;8.20;;;30.10;36.20;;;;;;10406276;28;20248;-74
2023/09/11 10:10:22;;;;;;;8.50;7.90;;;30.20;36.10;;;;;;10405918;28;20316;-75
2023/09/11 10:15:25;;;;;;;9.17;8.47;;;30.50;35.10;;;;;;10409770;28;20228;-75
2023/09/11 10:20:29;;;;;;;9.00;8.30;;;30.60;36.10;;;;;;10408254;28;20233;-75
2023/09/11 10:25:38;;;;;;;9.07;8.27;;;30.80;35.20;;;;;;10410173;28;20237;-73
2023/09/11 10:30:49;;;;;;;8.90;8.30;;;31.00;34.40;;;;;;10402716;28;20233;-75
2023/09/11 10:36:12;;;;;;;9.23;8.47;;;31.10;33.40;;;;;;10403622;28;20225;-75
2023/09/11 10:41:17;;;;;;;9.23;8.50;;;31.30;32.40;;;;;;10395710;28;20236;-74
2023/09/11 10:46:33;;;;;;;8.93;8.13;;;31.40;32.60;;;;;;10403574;28;20654;-76
2023/09/11 10:51:38;;;;;;;9.30;8.60;;;31.60;32.70;;;;;;10399634;28;20326;-74
2023/09/11 10:56:43;;;;;;;8.90;8.30;;;31.70;32.70;;;;;;10402945;28;20237;-74
2023/09/11 11:01:47;;;;;;;8.67;7.80;;;31.80;32.70;;;;;;10404828;28;20236;-74
2023/09/11 11:06:53;;;;;;;8.70;8.20;;;31.80;32.00;;;;;;10399609;28;20233;-73
2023/09/11 11:12:04;;;;;;;8.30;7.80;;;31.90;31.70;;;;;;10401615;28;20304;-74
2023/09/11 11:17:10;;;;;;;8.00;7.50;;;31.90;30.00;;;;;;10397150;28;20222;-73
2023/09/11 11:22:30;;;;;;;7.03;6.53;;;32.00;31.20;;;;;;10401393;28;20654;-74
2023/09/11 11:27:35;;;;;;;7.73;7.00;;;32.00;30.60;;;;;;10399340;28;20323;-73
2023/09/11 11:32:41;;;;;;;7.70;7.10;;;32.20;29.50;;;;;;10402088;28;20230;-74
2023/09/11 11:37:46;;;;;;;7.70;6.80;;;32.20;29.10;;;;;;10413008;28;20252;-74
2023/09/11 11:42:51;;;;;;;7.50;7.00;;;32.30;29.80;;;;;;10403625;28;20221;-75
2023/09/11 11:47:55;;;;;;;7.40;6.70;;;32.40;28.60;;;;;;10398136;28;20229;-75
2023/09/11 11:52:58;;;;;;;7.90;7.30;;;32.40;28.50;;;;;;10400533;28;20225;-75
2023/09/11 11:58:08;;;;;;;7.43;6.93;;;32.40;28.40;;;;;;10401992;28;20308;-77
2023/09/11 12:03:12;;;;;;;6.80;6.30;;;32.40;28.20;;;;;;10391427;28;20217;-74
2023/09/11 12:08:16;;;;;;;6.80;6.30;;;32.30;28.90;;;;;;10399894;28;20225;-73
2023/09/11 12:13:23;;;;;;;7.37;6.67;;;32.30;28.60;;;;;;10402770;28;20236;-74
2023/09/11 12:18:47;;;;;;;8.10;7.50;;;32.40;27.40;;;;;;10424980;28;20228;-74
2023/09/11 12:23:50;;;;;;;8.17;7.47;;;32.30;28.40;;;;;;10412626;28;20275;-74
2023/09/11 12:28:55;;;;;;;7.60;7.10;;;32.20;28.20;;;;;;10415425;28;20444;-74
2023/09/11 12:33:59;;;;;;;7.80;7.10;;;32.20;27.70;;;;;;10418091;28;20725;-73
2023/09/11 12:39:05;;;;;;;7.17;6.70;;;32.20;27.90;;;;;;10412337;28;20321;-73
2023/09/11 12:44:11;;;;;;;7.37;6.87;;;32.20;27.90;;;;;;10407890;28;20722;-74
2023/09/11 12:49:14;;;;;;;7.47;6.87;;;32.20;27.60;;;;;;10416492;28;20842;-73
2023/09/11 12:54:18;;;;;;;7.63;7.13;;;32.20;28.00;;;;;;10410180;28;20226;-74
2023/09/11 12:59:23;;;;;;;6.80;6.30;;;32.20;28.00;;;;;;10413678;28;20236;-74
2023/09/11 13:04:27;;;;;;;6.67;6.23;;;32.30;26.90;;;;;;10414218;28;20225;-74
2023/09/11 13:09:36;;;;;;;6.80;6.30;;;32.30;27.40;;;;;;10415800;28;20232;-75
2023/09/11 13:14:42;;;;;;;6.57;6.07;;;32.40;26.60;;;;;;10412526;28;20222;-73
2023/09/11 13:19:46;;;;;;;7.03;6.60;;;32.40;26.70;;;;;;10413676;28;20295;-73
2023/09/11 13:24:50;;;;;;;7.10;6.23;;;32.50;26.70;;;;;;10414357;28;20222;-73
2023/09/11 13:29:54;;;;;;;6.97;6.47;;;32.50;26.50;;;;;;10419631;28;20366;-73
2023/09/11 13:34:57;;;;;;;7.43;6.50;;;32.50;26.10;;;;;;10412378;28;20233;-74
2023/09/11 13:40:01;;;;;;;7.00;6.50;;;32.60;26.30;;;;;;10416669;28;20318;-74
2023/09/11 13:45:07;;;;;;;6.63;6.13;;;32.60;26.10;;;;;;10422064;28;20218;-74
2023/09/11 13:50:11;;;;;;;7.40;6.80;;;32.60;25.60;;;;;;10414425;28;20230;-74
2023/09/11 13:55:14;;;;;;;7.10;6.60;;;32.70;25.90;;;;;;10420393;28;20329;-74
2023/09/11 14:00:19;;;;;;;6.97;6.47;;;32.70;25.90;;;;;;10428613;28;21067;-75
2023/09/11 14:05:23;;;;;;;7.23;6.63;;;32.70;25.30;;;;;;10411760;28;20225;-74
2023/09/11 14:10:41;;;;;;;6.37;5.87;;;32.80;25.70;;;;;;10412167;28;20276;-74
2023/09/11 14:15:46;;;;;;;6.50;6.00;;;32.80;25.60;;;;;;10413800;28;20235;-74
2023/09/11 14:20:49;;;;;;;6.10;5.60;;;32.80;24.60;;;;;;10416571;28;20236;-74
2023/09/11 14:25:52;;;;;;;6.47;6.00;;;32.80;24.90;;;;;;10413178;28;20906;-74
2023/09/11 14:30:57;;;;;;;6.97;6.47;;;32.90;25.10;;;;;;10411992;28;20227;-74
2023/09/11 14:36:00;;;;;;;6.57;6.07;;;32.90;24.00;;;;;;10411140;28;20228;-74
2023/09/11 14:41:04;;;;;;;6.50;6.00;;;32.90;24.70;;;;;;10411701;28;20228;-75
2023/09/11 14:46:09;;;;;;;7.27;6.77;;;33.00;24.60;;;;;;10418221;28;20630;-75
2023/09/11 14:51:12;;;;;;;6.70;5.90;;;33.00;24.20;;;;;;10415709;28;20225;-75
2023/09/11 14:56:16;;;;;;;6.87;6.40;;;33.00;24.40;;;;;;10410505;28;20275;-75
2023/09/11 15:01:21;;;;;;;7.17;6.57;;;33.00;24.30;;;;;;10406587;28;20229;-75
2023/09/11 15:06:26;;;;;;;6.70;6.20;;;33.00;23.60;;;;;;10409468;28;20230;-74
2023/09/11 15:11:30;;;;;;;7.07;6.47;;;33.00;24.20;;;;;;10405483;28;20802;-75
2023/09/11 15:16:35;;;;;;;7.20;6.70;;;33.00;24.00;;;;;;10413916;28;20232;-74
2023/09/11 15:21:38;;;;;;;6.93;6.43;;;33.00;23.70;;;;;;10399957;28;20313;-75
2023/09/11 15:26:41;;;;;;;7.20;6.60;;;33.00;24.30;;;;;;10404970;28;20222;-74
2023/09/11 15:31:46;;;;;;;6.60;6.10;;;33.00;24.10;;;;;;10404625;28;20271;-75
2023/09/11 15:37:13;;;;;;;7.13;6.53;;;33.00;23.90;;;;;;10405732;28;20229;-74
2023/09/11 15:42:17;;;;;;;7.37;6.70;;;33.00;23.80;;;;;;10408324;28;20699;-74
2023/09/11 15:47:21;;;;;;;7.40;6.80;;;32.90;23.80;;;;;;10409229;28;20233;-75
2023/09/11 15:52:25;;;;;;;6.83;6.33;;;32.80;22.90;;;;;;10408318;28;20736;-74
2023/09/11 15:57:29;;;;;;;7.10;6.60;;;32.90;23.70;;;;;;10406551;28;20232;-75
2023/09/11 16:02:33;;;;;;;7.30;6.70;;;32.90;23.80;;;;;;10406520;28;20255;-75
2023/09/11 16:07:37;;;;;;;6.80;6.30;;;32.80;23.40;;;;;;10414977;28;20227;-75
2023/09/11 16:12:40;;;;;;;7.00;6.50;;;32.80;24.10;;;;;;10397502;28;20230;-75
2023/09/11 16:17:45;;;;;;;7.50;6.80;;;32.80;23.60;;;;;;10413895;28;20224;-75
2023/09/11 16:22:48;;;;;;;7.07;6.57;;;32.80;23.10;;;;;;10417093;28;20229;-75
2023/09/11 16:27:51;;;;;;;7.17;6.57;;;32.80;24.10;;;;;;10410585;28;20312;-75
2023/09/11 16:32:59;;;;;;;7.80;7.10;;;32.70;24.20;;;;;;10405079;28;20232;-75
2023/09/11 16:38:03;;;;;;;7.10;6.50;;;32.70;24.80;;;;;;10415110;28;20305;-75
2023/09/11 16:43:08;;;;;;;7.23;6.63;;;32.60;25.00;;;;;;10421693;28;20261;-75
2023/09/11 16:48:12;;;;;;;6.73;6.23;;;32.50;25.30;;;;;;10416164;28;20221;-75
2023/09/11 16:53:16;;;;;;;7.50;6.60;;;32.50;25.70;;;;;;10417855;28;20235;-75
2023/09/11 16:58:19;;;;;;;7.17;6.67;;;32.40;25.70;;;;;;10418710;28;20679;-74
2023/09/11 17:03:24;;;;;;;7.70;6.90;;;32.30;25.80;;;;;;10418334;28;20763;-73
2023/09/11 17:08:27;;;;;;;7.07;6.57;;;32.30;26.00;;;;;;10407665;28;20228;-75
2023/09/11 17:13:31;;;;;;;7.03;6.53;;;32.20;26.00;;;;;;10412482;28;20236;-76
2023/09/11 17:18:35;;;;;;;7.50;6.97;;;32.10;26.20;;;;;;10413426;28;20232;-74
2023/09/11 17:23:40;;;;;;;7.30;6.67;;;32.00;26.40;;;;;;10415041;28;20221;-75
2023/09/11 17:28:44;;;;;;;7.63;7.13;;;31.90;26.50;;;;;;10406193;28;20234;-74
2023/09/11 17:33:49;;;;;;;7.87;7.33;;;31.80;26.70;;;;;;10402849;28;20218;-75
2023/09/11 17:38:52;;;;;;;7.33;6.83;;;31.70;26.90;;;;;;10408666;28;20226;-73
2023/09/11 17:43:55;;;;;;;7.37;6.87;;;31.50;26.70;;;;;;10410298;28;20687;-73
2023/09/11 17:49:00;;;;;;;8.20;7.50;;;31.40;26.80;;;;;;10409451;28;20217;-73
2023/09/11 17:54:03;;;;;;;8.00;7.50;;;31.20;27.50;;;;;;10414735;28;20214;-73
2023/09/11 17:59:06;;;;;;;8.47;7.77;;;31.00;26.90;;;;;;10407685;28;20257;-73
2023/09/11 18:04:11;;;;;;;8.17;7.37;;;30.80;27.20;;;;;;10409870;28;20225;-73
2023/09/11 18:09:14;;;;;;;8.63;7.97;;;30.70;27.60;;;;;;10410884;28;20314;-75
2023/09/11 18:14:20;;;;;;;7.73;7.03;;;30.60;27.60;;;;;;10410895;28;20229;-75
2023/09/11 18:19:24;;;;;;;8.27;7.50;;;30.50;27.80;;;;;;10411762;28;20230;-69
2023/09/11 18:24:27;;;;;;;7.37;6.67;;;30.30;27.80;;;;;;10406527;28;20802;-70
2023/09/11 18:29:31;;;;;;;8.07;7.47;;;30.20;27.80;;;;;;10402231;28;20316;-70
2023/09/11 18:34:35;;;;;;;8.33;7.40;;;30.00;27.80;;;;;;10404659;28;20231;-70
2023/09/11 18:39:39;;;;;;;9.20;8.30;;;29.80;27.80;;;;;;10405619;28;20319;-70
2023/09/11 18:44:42;;;;;;;9.00;8.30;;;29.70;27.90;;;;;;10403124;28;20218;-71
2023/09/11 18:49:46;;;;;;;9.03;8.40;;;29.40;28.00;;;;;;10407360;28;20228;-70
2023/09/11 18:54:52;;;;;;;9.37;8.67;;;29.20;28.40;;;;;;10402231;28;20233;-70
2023/09/11 18:59:58;;;;;;;9.80;9.03;;;28.90;28.90;;;;;;10407737;28;20235;-70
2023/09/11 19:05:03;;;;;;;10.43;9.63;;;28.60;29.10;;;;;;10404517;28;20784;-70
2023/09/11 19:10:08;;;;;;;11.07;10.07;;;28.50;29.30;;;;;;10405757;28;21220;-70
2023/09/11 19:15:12;;;;;;;10.07;9.17;;;28.30;29.30;;;;;;10403917;28;20217;-70
2023/09/11 19:20:17;;;;;;;10.20;9.40;;;28.20;29.30;;;;;;10402395;28;20229;-70
2023/09/11 19:25:20;;;;;;;9.87;8.93;;;28.00;29.60;;;;;;10403807;28;20237;-70
2023/09/11 19:30:25;;;;;;;10.63;9.73;;;27.90;29.70;;;;;;10408618;28;20711;-70
2023/09/11 19:35:30;;;;;;;11.93;10.93;;;27.80;30.10;;;;;;10403080;28;20226;-71
2023/09/11 19:40:34;;;;;;;12.53;11.33;;;27.60;30.00;;;;;;10402172;28;20225;-71
2023/09/11 19:45:38;;;;;;;12.57;11.30;;;27.50;30.00;;;;;;10407408;28;20233;-71
2023/09/11 19:50:42;;;;;;;11.50;10.50;;;27.30;29.90;;;;;;10404671;28;20233;-71
2023/09/11 19:55:46;;;;;;;13.10;11.90;;;27.00;30.40;;;;;;10410354;28;20311;-71
2023/09/11 20:00:50;;;;;;;13.83;12.73;;;26.80;30.50;;;;;;10409362;28;20378;-70
2023/09/11 20:05:54;;;;;;;14.27;13.07;;;26.60;30.90;;;;;;10405665;28;20231;-70
2023/09/11 20:10:58;;;;;;;13.33;12.17;;;26.20;32.00;;;;;;10405651;28;20256;-70
2023/09/11 20:16:01;;;;;;;14.33;13.13;;;26.00;32.60;;;;;;10401067;28;20921;-70
2023/09/11 20:21:06;;;;;;;12.87;11.67;;;25.90;32.40;;;;;;10400660;28;20242;-70
2023/09/11 20:26:09;;;;;;;12.23;11.33;;;25.90;32.80;;;;;;10403312;28;20830;-70
2023/09/11 20:31:14;;;;;;;14.13;12.93;;;25.90;32.40;;;;;;10404277;28;20802;-70
2023/09/11 20:36:20;;;;;;;15.67;14.47;;;25.90;32.50;;;;;;10400552;28;20234;-70
2023/09/11 20:41:24;;;;;;;14.80;13.50;;;25.70;33.10;;;;;;10402426;28;20237;-70
2023/09/11 20:46:27;;;;;;;13.77;12.67;;;25.50;32.60;;;;;;10401712;28;20234;-70
2023/09/11 20:51:31;;;;;;;15.20;13.97;;;25.30;33.10;;;;;;10397487;28;20316;-70
2023/09/11 20:56:35;;;;;;;15.23;13.93;;;25.20;33.80;;;;;;10404222;28;20237;-70
2023/09/11 21:01:39;;;;;;;14.00;12.80;;;25.20;33.40;;;;;;10404924;28;20239;-70
2023/09/11 21:06:43;;;;;;;14.70;13.30;;;25.20;33.40;;;;;;10406682;28;20271;-70
2023/09/11 21:11:47;;;;;;;14.37;13.07;;;25.30;33.90;;;;;;10396002;28;20243;-70
2023/09/11 21:16:50;;;;;;;15.00;13.87;;;25.30;33.50;;;;;;10399543;28;20228;-70
2023/09/11 21:21:55;;;;;;;15.77;14.47;;;25.30;33.60;;;;;;10397399;28;20310;-70
2023/09/11 21:26:58;;;;;;;15.10;13.70;;;25.30;34.00;;;;;;10408130;28;20221;-70
2023/09/11 21:32:03;;;;;;;16.03;14.73;;;25.20;33.70;;;;;;10400238;28;20300;-70
2023/09/11 21:37:07;;;;;;;17.77;16.27;;;25.10;33.60;;;;;;10399805;28;20979;-70
2023/09/11 21:42:11;;;;;;;16.30;14.70;;;24.90;34.10;;;;;;10402013;28;20255;-70
2023/09/11 21:47:14;;;;;;;15.50;14.20;;;24.80;33.80;;;;;;10397373;28;20254;-70
2023/09/11 21:52:19;;;;;;;15.33;14.03;;;24.60;34.00;;;;;;10396198;28;20241;-70
2023/09/11 21:57:23;;;;;;;16.10;14.67;;;24.50;34.90;;;;;;10398147;28;20813;-70
2023/09/11 22:02:27;;;;;;;15.37;14.07;;;24.50;34.70;;;;;;10400497;28;20236;-70
2023/09/11 22:07:32;;;;;;;15.83;14.37;;;24.40;34.60;;;;;;10398431;28;20229;-70
2023/09/11 22:12:35;;;;;;;17.43;15.77;;;24.40;34.70;;;;;;10400771;28;20229;-70
2023/09/11 22:17:38;;;;;;;16.37;14.93;;;24.10;34.30;;;;;;10404085;28;20629;-70
2023/09/11 22:22:43;;;;;;;16.30;14.90;;;23.80;34.70;;;;;;10396367;28;20505;-70
2023/09/11 22:27:46;;;;;;;15.17;13.87;;;23.50;35.60;;;;;;10394425;28;20274;-70
2023/09/11 22:32:56;;;;;;;15.43;14.13;;;23.30;35.30;;;;;;10397908;28;20744;-70
2023/09/11 22:38:01;;;;;;;13.10;12.00;;;23.20;35.60;;;;;;10398849;28;20222;-70
2023/09/11 22:43:04;;;;;;;14.57;13.17;;;23.10;36.10;;;;;;10397151;28;20708;-70
2023/09/11 22:48:08;;;;;;;13.83;12.73;;;23.20;35.80;;;;;;10398766;28;20224;-70
2023/09/11 22:53:13;;;;;;;14.03;12.93;;;23.20;35.80;;;;;;10400356;28;20224;-70
2023/09/11 22:58:16;;;;;;;13.47;12.47;;;23.20;36.10;;;;;;10397825;28;20222;-70
2023/09/11 23:03:37;;;;;;;13.27;12.17;;;23.30;35.90;;;;;;10398167;28;21034;-70
2023/09/11 23:08:42;;;;;;;13.00;11.90;;;23.30;36.30;;;;;;10397385;28;20995;-70
2023/09/11 23:13:46;;;;;;;13.30;12.30;;;23.30;36.10;;;;;;10395502;28;20222;-70
2023/09/11 23:18:51;;;;;;;13.27;12.00;;;23.30;36.00;;;;;;10395521;28;20237;-70
2023/09/11 23:23:56;;;;;;;13.30;12.20;;;23.30;35.90;;;;;;10397908;28;20303;-70
2023/09/11 23:28:59;;;;;;;13.80;12.70;;;23.30;36.20;;;;;;10395352;28;20356;-70
2023/09/11 23:34:03;;;;;;;14.30;13.03;;;23.30;36.00;;;;;;10403654;28;20218;-70
2023/09/11 23:39:09;;;;;;;15.20;13.80;;;23.30;35.90;;;;;;10397719;28;20578;-70
2023/09/11 23:44:14;;;;;;;14.77;13.57;;;23.30;36.20;;;;;;10396063;28;20315;-70
2023/09/11 23:49:17;;;;;;;14.93;13.73;;;23.30;35.90;;;;;;10393472;28;20253;-70
2023/09/11 23:54:21;;;;;;;15.20;13.90;;;23.10;36.10;;;;;;10397495;28;20247;-70
2023/09/11 23:59:25;;;;;;;14.17;13.00;;;23.00;36.70;;;;;;10399302;28;20331;-70
